Time;durP1;ratioP1;P1;durP2;ratioP2;P2;SDS_P1;SDS_P2;PMS_P1;PMS_P2;Temp;Humidity;BMP_temperature;BMP_pressure;BME280_temperature;BME280_humidity;BME280_pressure;Samples;Min_cycle;Max_cycle;Signal;HPM_P1;HPM_P2
2022/10/07 00:02:19;;;;;;;7.07;4.40;;;12.60;99.90;;;;;;8255305;28;20644;-79
2022/10/07 00:06:21;;;;;;;8.15;4.75;;;12.30;99.90;;;;;;8255319;28;20117;-80
2022/10/07 00:10:22;;;;;;;8.98;5.00;;;12.20;99.90;;;;;;8265711;28;20023;-79
2022/10/07 00:14:22;;;;;;;12.18;5.00;;;12.20;99.90;;;;;;8264807;28;20038;-80
2022/10/07 00:18:23;;;;;;;7.20;5.03;;;12.10;99.90;;;;;;8265226;28;20081;-79
2022/10/07 00:22:24;;;;;;;10.32;5.00;;;12.10;99.90;;;;;;8265768;28;20026;-79
2022/10/07 00:26:27;;;;;;;8.65;5.00;;;12.10;99.90;;;;;;8265128;28;20545;-79
2022/10/07 00:30:28;;;;;;;15.55;5.15;;;12.10;99.90;;;;;;8264979;28;20587;-80
2022/10/07 00:34:28;;;;;;;6.45;5.05;;;12.10;99.90;;;;;;8265008;28;20117;-78
2022/10/07 00:42:34;;;;;;;11.23;4.47;;;12.20;99.90;;;;;;8276036;28;20137;-80
2022/10/07 00:46:38;;;;;;;11.23;5.22;;;12.20;99.90;;;;;;8269623;28;20049;-79
2022/10/07 00:50:38;;;;;;;8.90;4.95;;;12.10;99.90;;;;;;8252745;28;20015;-80
2022/10/07 00:54:39;;;;;;;7.38;5.03;;;12.10;99.90;;;;;;8263190;28;20556;-79
2022/10/07 00:58:42;;;;;;;9.18;5.35;;;12.00;99.90;;;;;;8254341;28;20018;-79
2022/10/07 01:02:43;;;;;;;6.63;5.70;;;11.90;99.90;;;;;;8261992;28;20026;-80
2022/10/07 01:06:44;;;;;;;8.63;5.10;;;11.90;99.90;;;;;;8261064;28;20026;-79
2022/10/07 01:11:25;;;;;;;6.50;5.07;;;11.90;99.90;;;;;;8262944;28;20034;-79
2022/10/07 01:15:48;;;;;;;9.45;5.28;;;12.00;99.90;;;;;;8262067;28;20069;-79
2022/10/07 01:20:16;;;;;;;9.48;5.60;;;11.90;99.90;;;;;;8256354;28;20171;-79
2022/10/07 01:24:37;;;;;;;8.02;5.57;;;11.80;99.90;;;;;;8263437;28;20022;-80
2022/10/07 01:28:46;;;;;;;9.10;5.87;;;11.70;99.90;;;;;;8259472;28;20031;-79
2022/10/07 01:32:55;;;;;;;6.72;5.20;;;11.70;99.90;;;;;;8262518;28;20286;-80
2022/10/07 01:36:58;;;;;;;8.90;5.70;;;11.80;99.90;;;;;;8261924;28;20018;-79
2022/10/07 01:41:05;;;;;;;8.45;5.82;;;11.80;99.90;;;;;;8262449;28;20031;-80
2022/10/07 01:45:09;;;;;;;7.43;6.00;;;11.80;99.90;;;;;;8251802;28;20031;-79
2022/10/07 01:49:10;;;;;;;14.05;6.20;;;11.60;99.90;;;;;;8262803;28;20355;-79
2022/10/07 01:53:27;;;;;;;11.43;6.30;;;11.60;99.90;;;;;;8258285;28;20022;-79
2022/10/07 01:57:41;;;;;;;9.52;5.45;;;11.40;99.90;;;;;;8251142;28;20597;-79
2022/10/07 02:02:08;;;;;;;10.45;6.20;;;11.60;99.90;;;;;;8261656;28;20105;-80
2022/10/07 02:06:31;;;;;;;9.80;5.57;;;11.40;99.90;;;;;;8256972;28;20383;-79
2022/10/07 02:10:59;;;;;;;7.85;4.40;;;11.30;99.90;;;;;;8223397;28;20042;-79
2022/10/07 02:15:24;;;;;;;8.77;5.05;;;11.00;99.90;;;;;;8260713;28;20027;-80
2022/10/07 02:19:34;;;;;;;10.55;5.90;;;10.70;99.90;;;;;;8254216;28;20031;-79
2022/10/07 02:23:38;;;;;;;9.10;5.50;;;10.80;99.90;;;;;;8261609;28;20505;-79
2022/10/07 02:27:41;;;;;;;7.53;5.25;;;10.70;99.90;;;;;;8256740;28;20459;-79
2022/10/07 02:31:44;;;;;;;8.40;5.50;;;10.40;99.90;;;;;;8262806;28;20366;-79
2022/10/07 02:35:49;;;;;;;7.85;5.57;;;10.30;99.90;;;;;;8257590;28;20662;-79
2022/10/07 02:39:52;;;;;;;11.85;5.38;;;10.30;99.90;;;;;;8252334;28;20085;-80
2022/10/07 02:44:08;;;;;;;11.52;6.13;;;10.20;99.90;;;;;;8262668;28;20026;-79
2022/10/07 02:48:27;;;;;;;9.77;6.68;;;10.10;99.90;;;;;;8260948;28;20084;-79
2022/10/07 02:52:30;;;;;;;14.38;6.75;;;10.20;99.90;;;;;;8256629;28;20546;-79
2022/10/07 02:56:32;;;;;;;12.45;7.32;;;10.20;99.90;;;;;;8256420;28;20385;-79
2022/10/07 03:00:38;;;;;;;10.35;5.80;;;10.50;99.90;;;;;;8254945;28;20058;-79
2022/10/07 03:04:38;;;;;;;8.90;6.15;;;10.70;99.90;;;;;;8259248;28;20581;-79
2022/10/07 03:08:41;;;;;;;19.15;8.95;;;10.60;99.90;;;;;;8259862;28;20023;-79
2022/10/07 03:12:42;;;;;;;9.57;6.10;;;10.60;99.90;;;;;;8260591;28;20046;-79
2022/10/07 03:16:43;;;;;;;9.98;6.25;;;10.70;99.90;;;;;;8260961;28;20030;-79
2022/10/07 03:20:43;;;;;;;11.38;7.53;;;10.60;99.90;;;;;;8261596;28;20508;-84
2022/10/07 03:24:44;;;;;;;19.30;12.23;;;10.80;99.90;;;;;;8260183;28;20749;-79
2022/10/07 03:28:45;;;;;;;20.65;10.93;;;10.80;99.90;;;;;;8255852;28;20038;-78
2022/10/07 03:32:45;;;;;;;8.40;6.32;;;10.90;99.90;;;;;;8252303;28;20367;-79
2022/10/07 03:36:46;;;;;;;16.48;9.32;;;11.30;99.90;;;;;;8248983;28;20044;-78
2022/10/07 03:40:46;;;;;;;19.13;11.23;;;11.00;99.90;;;;;;8257558;28;20375;-79
2022/10/07 03:44:50;;;;;;;11.85;7.43;;;10.80;99.90;;;;;;8259883;28;20057;-79
2022/10/07 03:48:51;;;;;;;11.93;5.70;;;10.80;99.90;;;;;;8260461;28;20018;-79
2022/10/07 03:52:51;;;;;;;10.05;6.78;;;10.50;99.90;;;;;;8257550;28;20046;-79
2022/10/07 03:56:52;;;;;;;12.30;7.88;;;10.30;99.90;;;;;;8255288;28;20062;-78
2022/10/07 04:01:07;;;;;;;17.25;9.57;;;10.30;99.90;;;;;;8255461;28;20062;-79
2022/10/07 04:05:08;;;;;;;23.85;11.95;;;10.40;99.90;;;;;;8262723;28;20060;-79
2022/10/07 04:09:11;;;;;;;27.75;14.02;;;10.50;99.90;;;;;;8264485;28;20034;-78
2022/10/07 04:13:12;;;;;;;18.48;10.38;;;10.60;99.90;;;;;;8264731;28;20053;-78
2022/10/07 04:17:12;;;;;;;12.25;7.65;;;10.60;99.90;;;;;;8262395;28;20030;-79
2022/10/07 04:21:13;;;;;;;9.35;6.60;;;10.60;99.90;;;;;;8255543;28;20080;-78
2022/10/07 04:29:33;;;;;;;11.10;6.25;;;10.50;99.90;;;;;;8266531;28;20032;-79
2022/10/07 04:33:38;;;;;;;10.20;6.50;;;10.10;99.90;;;;;;8266400;28;20018;-79
2022/10/07 04:37:40;;;;;;;14.02;7.32;;;9.90;99.90;;;;;;8265317;28;20026;-81
2022/10/07 04:41:41;;;;;;;13.93;9.18;;;9.80;99.90;;;;;;8254360;28;20034;-79
2022/10/07 04:45:42;;;;;;;16.83;9.38;;;9.80;99.90;;;;;;8261071;28;20034;-78
2022/10/07 04:49:42;;;;;;;22.33;11.43;;;9.70;99.90;;;;;;8265396;28;20429;-80
2022/10/07 04:53:43;;;;;;;19.42;11.45;;;9.60;99.90;;;;;;8253954;28;20030;-79
2022/10/07 04:57:44;;;;;;;20.52;11.05;;;9.50;99.90;;;;;;8264876;28;20065;-80
2022/10/07 05:01:44;;;;;;;26.45;12.35;;;9.20;99.90;;;;;;8261970;28;20025;-80
2022/10/07 05:05:50;;;;;;;25.15;12.63;;;9.10;99.90;;;;;;8265528;28;20502;-78
2022/10/07 05:09:51;;;;;;;22.60;11.43;;;9.00;99.90;;;;;;8262243;28;20459;-79
2022/10/07 05:13:51;;;;;;;27.25;12.10;;;9.00;99.90;;;;;;8262768;28;20041;-79
2022/10/07 05:17:54;;;;;;;26.63;13.27;;;8.90;99.90;;;;;;8259882;28;20034;-80
2022/10/07 05:21:55;;;;;;;24.17;12.82;;;8.80;99.90;;;;;;8261658;28;20018;-80
2022/10/07 05:26:00;;;;;;;31.17;14.57;;;8.80;99.90;;;;;;8264040;28;20564;-80
2022/10/07 05:30:01;;;;;;;31.75;14.90;;;8.80;99.90;;;;;;8265003;28;20018;-80
2022/10/07 05:34:01;;;;;;;28.35;14.07;;;8.90;99.90;;;;;;8262037;28;20041;-79
2022/10/07 05:38:02;;;;;;;24.30;11.48;;;9.20;99.90;;;;;;8262732;28;20018;-80
2022/10/07 05:42:03;;;;;;;19.95;10.65;;;9.30;99.90;;;;;;8263636;28;20030;-80
2022/10/07 05:46:06;;;;;;;18.92;10.23;;;9.50;99.90;;;;;;8262919;28;20097;-80
2022/10/07 05:50:07;;;;;;;23.15;11.30;;;9.60;99.90;;;;;;8263366;28;20491;-80
2022/10/07 05:54:08;;;;;;;19.85;12.00;;;9.70;99.90;;;;;;8258647;28;20053;-80
2022/10/07 05:58:08;;;;;;;20.50;12.00;;;9.80;99.90;;;;;;8264161;28;20073;-79
2022/10/07 06:02:13;;;;;;;17.17;10.63;;;10.10;99.90;;;;;;8260632;28;20019;-80
2022/10/07 06:06:14;;;;;;;15.63;10.38;;;10.30;99.90;;;;;;8264229;28;20045;-80
2022/10/07 06:14:34;;;;;;;19.58;10.43;;;10.60;99.90;;;;;;8262620;28;20077;-80
2022/10/07 06:18:38;;;;;;;17.55;11.27;;;10.80;99.90;;;;;;8255973;28;20022;-80
2022/10/07 06:22:38;;;;;;;15.65;10.10;;;10.90;99.90;;;;;;8262796;28;20521;-80
2022/10/07 06:26:41;;;;;;;16.23;10.48;;;11.00;99.90;;;;;;8260041;28;20034;-80
2022/10/07 06:30:41;;;;;;;18.90;11.25;;;11.10;99.90;;;;;;8261460;28;20386;-86
2022/10/07 06:34:43;;;;;;;19.05;12.18;;;11.20;99.90;;;;;;8252769;28;20039;-86
2022/10/07 06:38:46;;;;;;;20.50;12.10;;;11.50;99.90;;;;;;8259375;28;20393;-86
2022/10/07 06:42:47;;;;;;;19.25;12.18;;;11.70;99.90;;;;;;8253241;28;20030;-86
2022/10/07 06:46:48;;;;;;;21.40;13.00;;;11.90;99.90;;;;;;8256361;28;20114;-86
2022/10/07 06:50:50;;;;;;;35.90;21.00;;;12.20;99.90;;;;;;8256149;28;20050;-86
2022/10/07 06:54:51;;;;;;;23.08;14.43;;;12.10;99.90;;;;;;8251038;28;20029;-85
2022/10/07 06:58:51;;;;;;;13.27;9.18;;;12.40;99.90;;;;;;8253984;28;20030;-85
2022/10/07 07:02:52;;;;;;;17.77;10.50;;;12.70;99.90;;;;;;8258373;28;20053;-87
2022/10/07 07:06:53;;;;;;;18.83;10.05;;;12.80;99.90;;;;;;8263451;28;20022;-86
2022/10/07 07:10:54;;;;;;;20.48;11.13;;;13.10;99.90;;;;;;8260584;28;20029;-85
2022/10/07 07:14:55;;;;;;;15.75;10.30;;;13.20;99.90;;;;;;8261155;28;20076;-80
2022/10/07 07:18:58;;;;;;;14.68;10.70;;;13.30;99.90;;;;;;8261545;28;20467;-80
2022/10/07 07:22:58;;;;;;;13.20;9.85;;;13.50;99.90;;;;;;8257903;28;20034;-80
2022/10/07 07:26:59;;;;;;;13.30;8.93;;;13.70;99.90;;;;;;8256859;28;20101;-80
2022/10/07 07:31:07;;;;;;;13.55;9.20;;;13.80;99.90;;;;;;8262687;28;20483;-80
2022/10/07 07:35:08;;;;;;;17.67;13.38;;;13.90;99.90;;;;;;8257547;28;20439;-80
2022/10/07 07:39:11;;;;;;;21.90;13.60;;;14.20;99.90;;;;;;8260987;28;20022;-80
2022/10/07 07:43:12;;;;;;;21.55;14.32;;;14.40;99.90;;;;;;8267326;28;20019;-80
2022/10/07 07:47:15;;;;;;;22.90;16.52;;;14.60;99.90;;;;;;8267801;28;20018;-81
2022/10/07 07:51:16;;;;;;;21.95;15.60;;;14.70;99.90;;;;;;8262262;28;20026;-80
2022/10/07 07:55:17;;;;;;;25.02;15.27;;;14.70;99.90;;;;;;8253649;28;20026;-80
2022/10/07 07:59:17;;;;;;;20.75;14.70;;;15.20;99.90;;;;;;8263364;28;20102;-81
2022/10/07 08:03:18;;;;;;;21.10;13.77;;;15.90;99.90;;;;;;8264226;28;20409;-80
2022/10/07 08:07:19;;;;;;;18.13;13.35;;;16.00;99.90;;;;;;8265338;28;20165;-81
2022/10/07 08:11:19;;;;;;;23.13;14.35;;;16.20;99.90;;;;;;8266704;28;20033;-80
2022/10/07 08:15:20;;;;;;;20.48;13.50;;;16.10;99.90;;;;;;8265230;28;20516;-81
2022/10/07 08:19:20;;;;;;;20.83;15.00;;;16.00;99.90;;;;;;8263005;28;20521;-81
2022/10/07 08:23:21;;;;;;;28.45;15.13;;;16.10;99.90;;;;;;8258611;28;20023;-80
2022/10/07 08:27:21;;;;;;;23.27;15.52;;;16.40;99.90;;;;;;8260607;28;20026;-81
2022/10/07 08:31:26;;;;;;;23.05;15.35;;;16.30;99.90;;;;;;8266404;28;20034;-80
2022/10/07 08:35:26;;;;;;;22.50;14.98;;;16.20;99.90;;;;;;8266231;28;20026;-81
2022/10/07 08:39:28;;;;;;;22.65;16.17;;;16.20;99.90;;;;;;8265459;28;20061;-81
2022/10/07 08:43:28;;;;;;;24.75;16.27;;;16.10;99.90;;;;;;8265726;28;20088;-81
2022/10/07 08:47:40;;;;;;;25.00;16.13;;;15.80;99.90;;;;;;8260904;28;20050;-81
2022/10/07 08:51:47;;;;;;;25.92;17.40;;;15.70;99.90;;;;;;8256840;28;20029;-81
2022/10/07 08:55:54;;;;;;;24.17;15.50;;;15.60;99.90;;;;;;8259597;28;20041;-80
2022/10/07 09:00:01;;;;;;;25.85;17.00;;;16.00;99.90;;;;;;8262973;28;20032;-80
2022/10/07 09:04:18;;;;;;;24.08;15.60;;;16.50;99.90;;;;;;8264000;28;20033;-79
2022/10/07 09:08:27;;;;;;;22.27;14.60;;;16.50;99.90;;;;;;8262606;28;20019;-81
2022/10/07 09:12:43;;;;;;;23.02;14.60;;;16.70;99.90;;;;;;8262607;28;20117;-80
2022/10/07 09:16:45;;;;;;;20.95;13.65;;;16.50;99.90;;;;;;8263128;28;20026;-81
2022/10/07 09:20:52;;;;;;;23.40;14.48;;;16.50;99.90;;;;;;8265114;28;20026;-80
2022/10/07 09:25:16;;;;;;;24.52;13.95;;;16.40;99.90;;;;;;8259959;28;20541;-80
2022/10/07 09:29:20;;;;;;;22.80;15.40;;;16.40;99.90;;;;;;8251324;28;20025;-81
2022/10/07 09:33:23;;;;;;;23.98;15.07;;;16.50;99.90;;;;;;8254522;28;20030;-81
2022/10/07 09:37:26;;;;;;;20.20;14.70;;;16.60;99.90;;;;;;8263198;28;20037;-80
2022/10/07 09:41:34;;;;;;;22.08;14.13;;;16.70;99.90;;;;;;8264226;28;20366;-81
2022/10/07 09:45:35;;;;;;;21.05;13.27;;;16.60;99.90;;;;;;8251697;28;20078;-80
2022/10/07 09:49:42;;;;;;;21.30;14.15;;;16.70;99.90;;;;;;8262168;28;20022;-80
2022/10/07 09:54:03;;;;;;;20.85;13.70;;;16.50;99.90;;;;;;8258406;28;20018;-80
2022/10/07 09:58:14;;;;;;;21.05;14.95;;;16.40;99.90;;;;;;8255248;28;20030;-79
2022/10/07 10:02:24;;;;;;;21.17;14.02;;;16.40;99.90;;;;;;8261346;28;20044;-81
2022/10/07 10:06:26;;;;;;;18.13;13.20;;;16.60;99.90;;;;;;8261396;28;20042;-81
2022/10/07 10:10:29;;;;;;;22.45;13.73;;;16.50;99.90;;;;;;8262206;28;20117;-80
2022/10/07 10:14:44;;;;;;;18.50;13.00;;;16.80;99.90;;;;;;8255784;28;20018;-81
2022/10/07 10:18:53;;;;;;;16.45;11.80;;;16.80;99.90;;;;;;8259424;28;20022;-81
2022/10/07 10:22:55;;;;;;;18.33;13.60;;;16.60;99.90;;;;;;8263235;28;20026;-80
2022/10/07 10:27:04;;;;;;;20.80;14.45;;;16.40;99.90;;;;;;8261302;28;20027;-80
2022/10/07 10:31:22;;;;;;;23.03;15.17;;;16.10;99.90;;;;;;8253328;28;20398;-80
2022/10/07 10:35:37;;;;;;;26.00;15.13;;;16.10;99.90;;;;;;8260659;28;20034;-80
2022/10/07 10:39:56;;;;;;;16.67;12.90;;;16.20;99.90;;;;;;8259373;28;20486;-80
2022/10/07 10:44:18;;;;;;;17.13;12.43;;;16.30;99.90;;;;;;8258211;28;20018;-80
2022/10/07 10:48:36;;;;;;;17.73;12.90;;;16.40;99.90;;;;;;8260107;28;20024;-80
2022/10/07 10:53:19;;;;;;;16.55;11.52;;;16.30;99.90;;;;;;8260117;28;20553;-79
2022/10/07 10:57:37;;;;;;;17.65;12.02;;;16.40;99.90;;;;;;8271981;28;20080;-80
2022/10/07 11:01:41;;;;;;;16.08;11.23;;;16.30;99.90;;;;;;8254974;28;20045;-80
2022/10/07 11:05:42;;;;;;;14.70;10.13;;;16.30;99.90;;;;;;8258341;28;20022;-80
2022/10/07 11:10:03;;;;;;;16.13;11.32;;;16.30;99.90;;;;;;8261886;28;20027;-79
2022/10/07 11:14:13;;;;;;;14.68;10.82;;;16.20;99.90;;;;;;8267726;28;20030;-80
2022/10/07 11:18:35;;;;;;;15.17;10.13;;;16.20;99.90;;;;;;8266166;28;20050;-80
2022/10/07 11:22:41;;;;;;;15.93;10.20;;;16.30;99.90;;;;;;8267227;28;20019;-81
2022/10/07 11:26:57;;;;;;;14.45;10.95;;;16.40;99.90;;;;;;8266700;28;20022;-80
2022/10/07 11:31:16;;;;;;;15.43;10.40;;;16.30;99.90;;;;;;8266306;28;20033;-80
2022/10/07 11:35:32;;;;;;;15.95;10.90;;;16.40;99.90;;;;;;8263254;28;20489;-81
2022/10/07 11:39:37;;;;;;;16.63;11.25;;;16.10;99.90;;;;;;8264178;28;20060;-80
2022/10/07 11:43:44;;;;;;;15.40;11.55;;;16.20;99.90;;;;;;8262168;28;20030;-80
2022/10/07 11:48:01;;;;;;;15.35;10.73;;;16.00;99.90;;;;;;8265506;28;20266;-81
2022/10/07 11:52:09;;;;;;;16.15;11.07;;;16.20;99.90;;;;;;8269193;28;20033;-80
2022/10/07 11:56:35;;;;;;;14.75;10.75;;;16.40;99.90;;;;;;8260985;28;20030;-80
2022/10/07 12:00:39;;;;;;;17.83;11.88;;;16.30;99.90;;;;;;8267490;28;20054;-81
2022/10/07 12:04:39;;;;;;;17.77;12.00;;;16.20;99.90;;;;;;8268176;28;20025;-81
2022/10/07 12:08:42;;;;;;;32.03;14.05;;;16.00;99.90;;;;;;8267223;28;20422;-81
2022/10/07 12:12:43;;;;;;;16.00;10.88;;;16.00;99.90;;;;;;8267964;28;20109;-79
2022/10/07 12:17:17;;;;;;;15.60;10.52;;;16.00;99.90;;;;;;8268104;28;20508;-80
2022/10/07 12:21:18;;;;;;;17.20;10.18;;;16.00;99.90;;;;;;8261665;28;20398;-80
2022/10/07 12:25:31;;;;;;;14.00;10.15;;;15.90;99.90;;;;;;8256629;28;20025;-80
2022/10/07 12:30:01;;;;;;;16.13;10.85;;;16.00;99.90;;;;;;8260986;28;20019;-80
2022/10/07 12:34:04;;;;;;;16.05;11.00;;;16.20;99.90;;;;;;8247785;28;20046;-80
2022/10/07 12:38:14;;;;;;;15.32;10.43;;;16.30;99.90;;;;;;8266411;28;20026;-80
2022/10/07 12:42:15;;;;;;;13.63;10.15;;;16.30;99.90;;;;;;8263094;28;20026;-81
2022/10/07 12:46:19;;;;;;;15.55;10.82;;;16.20;99.90;;;;;;8266162;28;20720;-81
2022/10/07 12:50:21;;;;;;;18.98;11.40;;;15.90;99.90;;;;;;8264052;28;20545;-79
2022/10/07 12:55:07;;;;;;;15.65;10.52;;;15.80;99.90;;;;;;8269996;23;20050;-86
2022/10/07 12:59:47;;;;;;;17.20;12.27;;;16.10;99.90;;;;;;8267285;28;20502;-86
2022/10/07 13:04:36;;;;;;;17.48;11.05;;;16.10;99.90;;;;;;8253147;28;20038;-89
2022/10/07 13:38:56;;;;;;;15.15;10.60;;;16.40;99.90;;;;;;8199135;29;20090;-86
2022/10/07 13:43:00;;;;;;;16.13;10.45;;;16.40;99.90;;;;;;8183093;28;20130;-89
2022/10/07 13:47:29;;;;;;;12.55;9.70;;;16.80;99.90;;;;;;8264760;28;20034;-87
2022/10/07 13:51:41;;;;;;;15.20;9.80;;;16.70;99.90;;;;;;8264358;28;20069;-87
2022/10/07 13:55:46;;;;;;;13.82;9.85;;;16.70;99.90;;;;;;8264165;28;20037;-87
2022/10/07 13:59:50;;;;;;;13.43;10.23;;;16.60;99.90;;;;;;8262494;28;20483;-86
2022/10/07 14:04:32;;;;;;;15.73;10.52;;;16.50;99.90;;;;;;8262444;28;20084;-86
2022/10/07 14:08:49;;;;;;;15.50;10.00;;;16.40;99.90;;;;;;8260520;28;20035;-87
2022/10/07 14:13:02;;;;;;;14.35;10.85;;;16.60;99.90;;;;;;8261227;28;20034;-87
2022/10/07 14:17:29;;;;;;;17.00;10.98;;;16.80;99.90;;;;;;8258674;28;20029;-87
2022/10/07 14:21:33;;;;;;;13.80;10.10;;;16.70;99.90;;;;;;8263408;28;20026;-86
2022/10/07 14:25:58;;;;;;;15.02;10.55;;;16.80;99.90;;;;;;8261350;28;20395;-85
2022/10/07 14:30:00;;;;;;;16.73;9.73;;;16.70;99.90;;;;;;8267074;28;20101;-85
2022/10/07 14:38:35;;;;;;;16.92;10.65;;;16.70;99.90;;;;;;8266850;28;20057;-85
2022/10/07 14:42:37;;;;;;;16.33;10.32;;;16.90;99.90;;;;;;8267388;28;20030;-85
2022/10/07 14:46:38;;;;;;;15.27;10.30;;;17.10;99.90;;;;;;8265597;28;20030;-85
2022/10/07 14:50:39;;;;;;;16.70;10.35;;;17.00;99.90;;;;;;8265589;28;20034;-85
2022/10/07 14:54:40;;;;;;;12.75;10.23;;;17.30;99.90;;;;;;8265977;28;20490;-85
2022/10/07 14:58:41;;;;;;;16.70;9.93;;;17.30;99.90;;;;;;8266990;28;20070;-85
2022/10/07 15:02:42;;;;;;;13.45;9.20;;;17.40;99.90;;;;;;8263944;28;20744;-86
2022/10/07 15:06:42;;;;;;;12.95;9.20;;;17.20;99.90;;;;;;8256050;28;20050;-86
2022/10/07 15:10:43;;;;;;;12.27;9.98;;;17.20;99.90;;;;;;8264419;28;20019;-87
2022/10/07 15:14:47;;;;;;;14.15;9.73;;;17.40;99.90;;;;;;8260511;28;20026;-85
2022/10/07 15:18:48;;;;;;;13.20;9.82;;;17.40;99.90;;;;;;8265827;28;20030;-88
2022/10/07 15:22:49;;;;;;;13.60;9.70;;;17.50;99.90;;;;;;8262332;28;20044;-85
2022/10/07 15:26:50;;;;;;;11.57;9.30;;;17.60;99.90;;;;;;8266226;28;20164;-85
2022/10/07 15:30:59;;;;;;;15.75;9.40;;;17.20;99.90;;;;;;8265231;28;20031;-86
2022/10/07 15:35:00;;;;;;;13.02;9.25;;;16.80;99.90;;;;;;8264357;28;20037;-87
2022/10/07 15:39:01;;;;;;;13.73;9.50;;;16.60;99.90;;;;;;8265042;28;20046;-85
2022/10/07 15:43:01;;;;;;;17.65;11.13;;;16.60;99.90;;;;;;8264137;28;20533;-85
2022/10/07 15:47:02;;;;;;;21.30;14.70;;;16.30;99.90;;;;;;8263698;28;20117;-85
2022/10/07 15:51:03;;;;;;;15.85;12.13;;;16.20;99.90;;;;;;8264640;28;20549;-86
2022/10/07 15:55:10;;;;;;;19.02;12.75;;;15.70;99.90;;;;;;8273495;28;20511;-83
2022/10/07 15:59:16;;;;;;;13.77;10.95;;;15.40;99.90;;;;;;8272771;28;20033;-83
2022/10/07 16:03:21;;;;;;;23.17;15.52;;;15.50;99.90;;;;;;8281429;28;20030;-83
2022/10/07 16:07:27;;;;;;;21.88;14.50;;;15.40;99.90;;;;;;8277685;28;20022;-84
2022/10/07 16:11:31;;;;;;;19.42;12.90;;;15.10;99.90;;;;;;8278566;28;20030;-83
2022/10/07 16:15:35;;;;;;;15.90;11.48;;;15.10;99.90;;;;;;8284406;28;20491;-80
2022/10/07 16:19:37;;;;;;;18.23;11.23;;;15.00;99.90;;;;;;8309262;28;20038;-82
2022/10/07 16:23:44;;;;;;;18.80;11.70;;;14.90;99.90;;;;;;8290294;28;20027;-84
2022/10/07 16:32:04;;;;;;;19.73;11.07;;;14.40;99.90;;;;;;8277229;28;20033;-83
2022/10/07 16:36:13;;;;;;;18.85;11.45;;;14.20;99.90;;;;;;8281327;28;20030;-83
2022/10/07 16:40:16;;;;;;;18.73;12.52;;;13.90;99.90;;;;;;8275657;28;20033;-83
2022/10/07 16:44:18;;;;;;;19.10;11.73;;;13.70;99.90;;;;;;8277423;28;20034;-82
2022/10/07 16:48:18;;;;;;;24.85;11.85;;;13.50;99.90;;;;;;8271981;28;20059;-84
2022/10/07 16:52:20;;;;;;;15.40;11.05;;;13.20;99.90;;;;;;8271327;28;20022;-82
2022/10/07 16:56:22;;;;;;;15.45;10.68;;;12.90;99.90;;;;;;8270231;28;20042;-82
2022/10/07 17:00:22;;;;;;;15.85;11.60;;;12.60;99.90;;;;;;8272479;28;20030;-83
2022/10/07 17:04:23;;;;;;;18.15;12.43;;;12.40;99.90;;;;;;8268330;28;20402;-83
2022/10/07 17:08:25;;;;;;;21.85;12.23;;;12.40;99.90;;;;;;8270769;28;20073;-84
2022/10/07 17:12:25;;;;;;;19.90;12.85;;;12.20;99.90;;;;;;8268587;28;20081;-83
2022/10/07 17:16:28;;;;;;;19.23;13.75;;;12.10;99.90;;;;;;8270873;28;20519;-83
2022/10/07 17:20:29;;;;;;;27.40;13.57;;;11.80;99.90;;;;;;8270875;28;20034;-84
2022/10/07 17:24:30;;;;;;;25.35;13.07;;;11.60;99.90;;;;;;8269415;28;20430;-83
2022/10/07 17:28:30;;;;;;;21.15;13.40;;;11.30;99.90;;;;;;8269038;28;20734;-83
2022/10/07 17:32:31;;;;;;;21.67;13.23;;;11.00;99.90;;;;;;8266728;28;20030;-83
2022/10/07 17:36:34;;;;;;;31.42;18.33;;;11.10;99.90;;;;;;8267646;28;20027;-82
2022/10/07 17:40:35;;;;;;;30.58;20.45;;;11.20;99.90;;;;;;8261893;28;20057;-84
2022/10/07 17:44:36;;;;;;;29.60;18.42;;;11.10;99.90;;;;;;8269704;28;20364;-83
2022/10/07 17:48:41;;;;;;;26.25;16.42;;;10.90;99.90;;;;;;8266840;28;20034;-83
2022/10/07 17:52:42;;;;;;;30.95;17.60;;;11.00;99.90;;;;;;8260836;28;20030;-83
2022/10/07 17:56:43;;;;;;;25.63;16.33;;;10.80;99.90;;;;;;8269349;28;20034;-83
2022/10/07 18:00:44;;;;;;;30.10;15.90;;;10.60;99.90;;;;;;8269708;28;20399;-84
2022/10/07 18:04:45;;;;;;;26.13;15.60;;;10.40;99.90;;;;;;8269184;28;20054;-82
2022/10/07 18:08:46;;;;;;;27.70;15.60;;;10.30;99.90;;;;;;8269112;28;20045;-83
2022/10/07 18:17:08;;;;;;;40.63;22.60;;;10.30;99.90;;;;;;8264599;28;20084;-82
2022/10/07 18:21:09;;;;;;;30.05;18.83;;;10.20;99.90;;;;;;8268413;28;20053;-83
2022/10/07 18:25:10;;;;;;;26.30;17.77;;;10.10;99.90;;;;;;8269641;28;20040;-83
2022/10/07 18:29:11;;;;;;;29.98;18.52;;;9.90;99.90;;;;;;8270490;28;20019;-84
2022/10/07 18:33:12;;;;;;;35.25;18.50;;;9.80;99.90;;;;;;8269100;28;20411;-83
2022/10/07 18:37:13;;;;;;;32.80;19.17;;;9.80;99.90;;;;;;8269194;28;20022;-83
2022/10/07 18:41:15;;;;;;;29.58;18.33;;;9.70;99.90;;;;;;8269134;28;20018;-84
2022/10/07 18:45:17;;;;;;;29.70;17.92;;;9.70;99.90;;;;;;8268959;28;20033;-82
2022/10/07 18:49:17;;;;;;;32.20;17.33;;;9.70;99.90;;;;;;8265358;28;20395;-83
2022/10/07 18:53:18;;;;;;;26.95;16.83;;;9.60;99.90;;;;;;8269112;28;20064;-84
2022/10/07 18:57:19;;;;;;;32.50;17.30;;;9.80;99.90;;;;;;8267576;28;20042;-84
2022/10/07 19:01:22;;;;;;;31.30;18.25;;;9.60;99.90;;;;;;8268638;28;20022;-84
2022/10/07 19:05:23;;;;;;;28.92;18.63;;;9.50;99.90;;;;;;8267935;28;20097;-83
2022/10/07 19:09:25;;;;;;;30.38;18.15;;;9.40;99.90;;;;;;8264710;28;20061;-83
2022/10/07 19:17:45;;;;;;;29.40;18.02;;;9.40;99.90;;;;;;8266839;28;20395;-82
2022/10/07 19:21:47;;;;;;;38.35;20.50;;;9.40;99.90;;;;;;8267905;28;20026;-84
2022/10/07 19:25:48;;;;;;;34.80;20.98;;;9.20;99.90;;;;;;8265633;28;20022;-83
2022/10/07 19:29:49;;;;;;;33.95;19.63;;;9.20;99.90;;;;;;8269434;28;20030;-84
2022/10/07 19:33:54;;;;;;;37.63;21.50;;;9.10;99.90;;;;;;8274693;28;20031;-83
2022/10/07 19:37:55;;;;;;;44.28;24.35;;;9.00;99.90;;;;;;8276001;28;20030;-83
2022/10/07 19:41:56;;;;;;;41.30;23.48;;;9.00;99.90;;;;;;8269883;28;20542;-82
2022/10/07 19:46:00;;;;;;;44.90;23.33;;;9.00;99.90;;;;;;8277032;28;20431;-83
2022/10/07 19:50:01;;;;;;;43.38;24.10;;;8.80;99.90;;;;;;8278157;28;20381;-82
2022/10/07 19:54:06;;;;;;;39.08;21.58;;;8.80;99.90;;;;;;8305609;28;20026;-80
2022/10/07 19:58:07;;;;;;;34.55;19.92;;;8.70;99.90;;;;;;8272242;28;20387;-82
2022/10/07 20:02:10;;;;;;;34.97;20.42;;;8.70;99.90;;;;;;8271250;28;20026;-81
2022/10/07 20:06:10;;;;;;;29.98;17.38;;;8.70;99.90;;;;;;8268088;28;20427;-82
2022/10/07 20:10:11;;;;;;;33.97;17.77;;;8.60;99.90;;;;;;8271025;28;20023;-82
2022/10/07 20:14:12;;;;;;;31.10;17.70;;;8.60;99.90;;;;;;8269179;28;20024;-83
2022/10/07 20:18:12;;;;;;;29.95;17.77;;;8.40;99.90;;;;;;8266604;28;20053;-82
2022/10/07 20:22:13;;;;;;;35.33;18.67;;;8.40;99.90;;;;;;8274846;28;20022;-82
2022/10/07 20:26:19;;;;;;;31.50;18.20;;;8.30;99.90;;;;;;8274769;28;20041;-84
2022/10/07 20:30:20;;;;;;;30.27;18.02;;;8.20;99.90;;;;;;8272754;28;20565;-83
2022/10/07 20:34:20;;;;;;;31.77;17.88;;;8.30;99.90;;;;;;8272212;28;20088;-83
2022/10/07 20:38:21;;;;;;;29.25;17.60;;;8.20;99.90;;;;;;8270937;28;20034;-83
2022/10/07 20:42:24;;;;;;;27.80;16.50;;;8.20;99.90;;;;;;8270699;28;20045;-82
2022/10/07 20:46:24;;;;;;;30.58;16.48;;;8.10;99.90;;;;;;8265690;28;20026;-83
2022/10/07 20:55:22;;;;;;;30.67;17.00;;;8.00;99.90;;;;;;8264156;28;20041;-82
2022/10/07 20:59:26;;;;;;;30.95;17.90;;;8.00;99.90;;;;;;8267964;28;20499;-83
2022/10/07 21:03:29;;;;;;;37.38;18.98;;;8.00;99.90;;;;;;8260432;28;20549;-83
2022/10/07 21:07:29;;;;;;;34.70;18.63;;;8.30;99.90;;;;;;8267305;28;20022;-82
2022/10/07 21:11:30;;;;;;;32.70;18.23;;;8.20;99.90;;;;;;8264987;28;20395;-83
2022/10/07 21:15:35;;;;;;;40.05;18.85;;;8.20;99.90;;;;;;8267162;28;20726;-83
2022/10/07 21:19:35;;;;;;;34.13;18.90;;;8.20;99.90;;;;;;8267292;28;20026;-83
2022/10/07 21:24:13;;;;;;;37.28;20.50;;;8.20;99.90;;;;;;8267968;28;20590;-83
2022/10/07 21:28:14;;;;;;;31.50;18.30;;;8.30;99.90;;;;;;8267387;28;20023;-82
2022/10/07 21:32:15;;;;;;;40.22;21.17;;;8.30;99.90;;;;;;8267447;28;20026;-83
2022/10/07 21:36:18;;;;;;;32.85;18.80;;;8.30;99.90;;;;;;8266890;28;20053;-83
2022/10/07 21:40:19;;;;;;;30.05;17.58;;;8.20;99.90;;;;;;8266162;28;20466;-83
2022/10/07 21:44:19;;;;;;;32.58;16.75;;;8.30;99.90;;;;;;8272753;28;20046;-83
2022/10/07 21:48:20;;;;;;;29.98;17.08;;;8.20;99.90;;;;;;8266227;28;20080;-81
2022/10/07 21:52:20;;;;;;;28.05;15.80;;;8.00;99.90;;;;;;8266951;28;20037;-83
2022/10/07 21:56:21;;;;;;;32.13;17.17;;;7.90;99.90;;;;;;8265593;28;20072;-83
2022/10/07 22:00:22;;;;;;;31.88;17.52;;;7.80;99.90;;;;;;8266651;28;20026;-83